< Cyclone 196611 1966 Season Cyclone 196613 >
Cyclone 196612 (MARTHA)
General InformationTrack Information on Google Maps || ResourceGoogle EarthGE AnimationAtom FeedGeoJSON
Detalied Best Track (Time Zone = UTC)
Year Month Day Hour Lat. Long. Pressure (hPa) Wind (kt) Class Image Chart
1966 2 24 01 -10.9 99.0 1003 0 0 -- --
1966 2 24 04 -11.3 98.4 1003 0 0 -- --
1966 2 24 07 -11.8 97.8 1003 0 0 -- --
1966 2 24 10 -12.2 97.2 1003 0 0 -- --
1966 2 24 16 -12.7 96.7 1003 0 0 -- --
1966 2 24 19 -13.1 96.6 1002 0 0 -- --
1966 2 24 22 -13.4 96.5 1001 0 0 -- --
1966 2 25 01 -13.7 96.4 1000 0 0 -- --
1966 2 25 04 -14.1 96.3 999 0 0 -- --
1966 2 25 10 -14.7 96.1 997 0 0 -- --
1966 2 25 16 -15.0 95.6 997 0 0 -- --
1966 2 25 22 -15.8 94.6 998 0 0 -- --
1966 2 26 01 -16.2 94.2 999 0 0 -- --
1966 2 26 04 -16.1 93.9 999 0 0 -- --
1966 2 26 07 -16.1 93.6 999 0 0 -- --
1966 2 26 10 -16.0 93.3 999 0 0 -- --
1966 2 26 16 -16.0 93.0 999 0 0 -- --
1966 2 26 19 -15.9 92.6 999 0 0 -- --
1966 2 26 22 -15.9 92.3 999 0 0 -- --
1966 2 27 01 -15.8 92.0 999 0 0 -- --
1966 2 27 04 -15.8 91.8 999 0 0 -- --
1966 2 27 10 -15.9 91.2 999 0 0 -- --
1966 2 27 16 -15.9 91.0 999 0 0 -- --
1966 2 27 19 -16.0 90.7 999 0 0 -- --
1966 2 27 22 -16.0 90.5 999 0 0 -- --
1966 2 28 01 -16.1 90.2 999 0 0 -- --
1966 2 28 04 -16.6 90.3 998 0 0 -- --
1966 2 28 07 -17.0 90.3 997 0 0 -- --
1966 2 28 10 -17.4 90.4 996 0 0 -- --
1966 2 28 16 -17.9 90.5 995 0 0 -- --
1966 2 28 19 -18.3 90.6 994 0 0 -- --
1966 3 1 01 -19.2 90.7 992 0 0 -- --
1966 3 1 04 -19.1 91.0 993 0 0 -- --
1966 3 1 07 -18.9 91.4 993 0 0 -- --
1966 3 1 10 -18.7 91.7 994 0 0 -- --
1966 3 1 16 -18.5 92.1 994 0 0 -- --
1966 3 1 19 -18.3 92.6 995 0 0 -- --
1966 3 1 22 -18.1 93.0 995 0 0 -- --
1966 3 2 01 -17.9 93.3 996 0 0 -- --
1966 3 2 04 -17.9 93.0 996 0 0 -- --
1966 3 2 07 -17.8 92.6 996 0 0 -- --
1966 3 2 10 -17.8 92.3 997 0 0 -- --
1966 3 2 16 -17.8 92.0 997 0 0 -- --
1966 3 2 19 -17.7 91.6 997 0 0 -- --
1966 3 2 22 -17.7 91.3 998 0 0 -- --
1966 3 3 01 -17.6 91.0 998 0 0 -- --
1966 3 3 04 -17.8 89.7 998 0 0 -- --
1966 3 3 07 -18.0 88.4 998 0 0 -- --
1966 3 3 22 -18.8 83.2 1000 0 0 -- --
1966 3 4 16 -20.0 80.2 1000 0 0 -- --
1966 3 4 22 -20.6 79.0 1000 0 0 -- --
1966 3 5 07 -20.9 77.0 999 0 0 -- --
1966 3 5 16 -20.9 75.8 998 0 0 -- --
1966 3 5 19 -20.9 75.2 997 0 0 -- --
1966 3 5 22 -21.0 74.6 996 0 0 -- --
1966 3 6 04 -21.2 73.3 996 0 0 -- --
1966 3 6 07 -21.3 72.6 997 0 0 -- --
1966 3 6 16 -21.5 71.2 997 0 0 -- --
1966 3 6 19 -21.6 70.5 997 0 0 -- --
1966 3 6 22 -21.7 69.7 998 0 0 -- --
1966 3 7 01 -21.9 69.0 998 0 0 -- --
1966 3 7 04 -22.2 68.4 998 0 0 -- --
1966 3 7 07 -22.6 67.8 999 0 0 -- --
1966 3 7 16 -23.4 66.6 1000 0 0 -- --
1966 3 7 19 -23.8 66.0 1001 0 0 -- --
1966 3 7 22 -24.2 65.4 1002 0 0 -- --
1966 3 8 01 -24.6 64.8 1003 0 0 -- --
< Cyclone 196611 1966 Season Cyclone 196613 >

Help